sensor_id;sensor_type;location;lat;lon;timestamp;temperature;humidity
83500;DHT22;73433;50.908;13.746;2023-12-07T00:00:35;0.70;97.00
83500;DHT22;73433;50.908;13.746;2023-12-07T00:03:02;0.70;97.10
83500;DHT22;73433;50.908;13.746;2023-12-07T00:05:30;0.70;97.10
83500;DHT22;73433;50.908;13.746;2023-12-07T00:07:57;0.70;97.10
83500;DHT22;73433;50.908;13.746;2023-12-07T00:10:24;0.70;97.00
83500;DHT22;73433;50.908;13.746;2023-12-07T00:12:51;0.70;97.00
83500;DHT22;73433;50.908;13.746;2023-12-07T00:15:18;0.70;97.00
83500;DHT22;73433;50.908;13.746;2023-12-07T00:17:45;0.80;97.00
83500;DHT22;73433;50.908;13.746;2023-12-07T00:20:12;0.80;97.00
83500;DHT22;73433;50.908;13.746;2023-12-07T00:22:39;0.80;97.00
83500;DHT22;73433;50.908;13.746;2023-12-07T00:25:07;0.80;96.90
83500;DHT22;73433;50.908;13.746;2023-12-07T00:27:34;0.80;96.90
83500;DHT22;73433;50.908;13.746;2023-12-07T00:30:01;0.70;96.90
83500;DHT22;73433;50.908;13.746;2023-12-07T00:32:28;0.80;96.80
83500;DHT22;73433;50.908;13.746;2023-12-07T00:34:55;0.80;96.80
83500;DHT22;73433;50.908;13.746;2023-12-07T00:37:22;0.90;96.90
83500;DHT22;73433;50.908;13.746;2023-12-07T00:39:50;0.90;97.00
83500;DHT22;73433;50.908;13.746;2023-12-07T00:42:17;0.90;97.00
83500;DHT22;73433;50.908;13.746;2023-12-07T00:44:44;0.90;97.00
83500;DHT22;73433;50.908;13.746;2023-12-07T00:47:11;0.80;96.90
83500;DHT22;73433;50.908;13.746;2023-12-07T00:49:38;0.90;97.00
83500;DHT22;73433;50.908;13.746;2023-12-07T00:52:09;0.90;97.00
83500;DHT22;73433;50.908;13.746;2023-12-07T00:54:36;0.90;97.00
83500;DHT22;73433;50.908;13.746;2023-12-07T00:57:03;0.90;97.00
83500;DHT22;73433;50.908;13.746;2023-12-07T00:59:30;0.90;97.00
83500;DHT22;73433;50.908;13.746;2023-12-07T01:02:06;0.90;97.00
83500;DHT22;73433;50.908;13.746;2023-12-07T01:04:33;0.90;97.00
83500;DHT22;73433;50.908;13.746;2023-12-07T01:07:01;0.90;97.00
83500;DHT22;73433;50.908;13.746;2023-12-07T01:09:28;0.90;97.00
83500;DHT22;73433;50.908;13.746;2023-12-07T01:11:55;1.00;96.90
83500;DHT22;73433;50.908;13.746;2023-12-07T01:14:22;1.00;97.00
83500;DHT22;73433;50.908;13.746;2023-12-07T01:16:50;1.00;96.90
83500;DHT22;73433;50.908;13.746;2023-12-07T01:19:17;0.90;96.80
83500;DHT22;73433;50.908;13.746;2023-12-07T01:21:44;1.00;96.80
83500;DHT22;73433;50.908;13.746;2023-12-07T01:24:11;0.90;96.80
83500;DHT22;73433;50.908;13.746;2023-12-07T01:26:43;0.90;96.80
83500;DHT22;73433;50.908;13.746;2023-12-07T01:29:10;0.90;96.90
83500;DHT22;73433;50.908;13.746;2023-12-07T01:31:37;1.00;96.90
83500;DHT22;73433;50.908;13.746;2023-12-07T01:34:04;1.00;97.00
83500;DHT22;73433;50.908;13.746;2023-12-07T01:36:31;1.00;97.00
83500;DHT22;73433;50.908;13.746;2023-12-07T01:38:58;0.90;96.90
83500;DHT22;73433;50.908;13.746;2023-12-07T01:41:25;1.00;97.00
83500;DHT22;73433;50.908;13.746;2023-12-07T01:43:52;1.00;97.00
83500;DHT22;73433;50.908;13.746;2023-12-07T01:46:20;1.00;96.90
83500;DHT22;73433;50.908;13.746;2023-12-07T01:48:47;1.00;96.90
83500;DHT22;73433;50.908;13.746;2023-12-07T01:51:17;1.00;96.90
83500;DHT22;73433;50.908;13.746;2023-12-07T01:53:46;1.00;96.80
83500;DHT22;73433;50.908;13.746;2023-12-07T01:56:15;1.00;96.80
83500;DHT22;73433;50.908;13.746;2023-12-07T01:58:43;1.00;96.80
83500;DHT22;73433;50.908;13.746;2023-12-07T02:01:10;1.00;96.70
83500;DHT22;73433;50.908;13.746;2023-12-07T02:03:40;1.00;96.80
83500;DHT22;73433;50.908;13.746;2023-12-07T02:06:07;1.00;96.70
83500;DHT22;73433;50.908;13.746;2023-12-07T02:08:36;1.00;96.70
83500;DHT22;73433;50.908;13.746;2023-12-07T02:11:09;1.20;96.80
83500;DHT22;73433;50.908;13.746;2023-12-07T02:13:41;1.10;96.70
83500;DHT22;73433;50.908;13.746;2023-12-07T02:21:52;1.10;96.60
83500;DHT22;73433;50.908;13.746;2023-12-07T02:24:25;1.10;96.60
83500;DHT22;73433;50.908;13.746;2023-12-07T02:26:54;1.10;96.50
83500;DHT22;73433;50.908;13.746;2023-12-07T02:29:21;1.10;96.50
83500;DHT22;73433;50.908;13.746;2023-12-07T02:31:48;1.10;96.50
83500;DHT22;73433;50.908;13.746;2023-12-07T02:34:15;1.10;96.50
83500;DHT22;73433;50.908;13.746;2023-12-07T02:36:44;1.10;96.50
83500;DHT22;73433;50.908;13.746;2023-12-07T02:39:13;1.10;96.50
83500;DHT22;73433;50.908;13.746;2023-12-07T02:41:41;1.10;96.50
83500;DHT22;73433;50.908;13.746;2023-12-07T02:44:10;1.10;96.50
83500;DHT22;73433;50.908;13.746;2023-12-07T02:46:37;1.10;96.50
83500;DHT22;73433;50.908;13.746;2023-12-07T02:49:04;1.10;96.50
83500;DHT22;73433;50.908;13.746;2023-12-07T02:51:32;1.10;96.50
83500;DHT22;73433;50.908;13.746;2023-12-07T02:53:59;1.10;96.50
83500;DHT22;73433;50.908;13.746;2023-12-07T02:56:26;1.10;96.40
83500;DHT22;73433;50.908;13.746;2023-12-07T02:58:53;1.10;96.50
83500;DHT22;73433;50.908;13.746;2023-12-07T03:01:20;1.20;96.50
83500;DHT22;73433;50.908;13.746;2023-12-07T03:03:47;1.10;96.50
83500;DHT22;73433;50.908;13.746;2023-12-07T03:06:14;1.20;96.50
83500;DHT22;73433;50.908;13.746;2023-12-07T03:08:43;1.10;96.50
83500;DHT22;73433;50.908;13.746;2023-12-07T03:11:10;1.10;96.40
83500;DHT22;73433;50.908;13.746;2023-12-07T03:13:37;1.20;96.50
83500;DHT22;73433;50.908;13.746;2023-12-07T03:16:08;1.20;96.50
83500;DHT22;73433;50.908;13.746;2023-12-07T03:18:37;1.20;96.50
83500;DHT22;73433;50.908;13.746;2023-12-07T03:21:04;1.20;96.40
83500;DHT22;73433;50.908;13.746;2023-12-07T03:23:31;1.20;96.40
83500;DHT22;73433;50.908;13.746;2023-12-07T03:25:58;1.20;96.30
83500;DHT22;73433;50.908;13.746;2023-12-07T03:28:26;1.20;96.30
83500;DHT22;73433;50.908;13.746;2023-12-07T03:30:53;1.20;96.20
83500;DHT22;73433;50.908;13.746;2023-12-07T03:33:20;1.20;96.20
83500;DHT22;73433;50.908;13.746;2023-12-07T03:35:47;1.20;96.20
83500;DHT22;73433;50.908;13.746;2023-12-07T03:38:14;1.20;96.20
83500;DHT22;73433;50.908;13.746;2023-12-07T03:40:41;1.20;96.20
83500;DHT22;73433;50.908;13.746;2023-12-07T03:43:09;1.20;96.10
83500;DHT22;73433;50.908;13.746;2023-12-07T03:45:36;1.20;96.10
83500;DHT22;73433;50.908;13.746;2023-12-07T03:48:03;1.20;96.00
83500;DHT22;73433;50.908;13.746;2023-12-07T03:50:31;1.20;96.00
83500;DHT22;73433;50.908;13.746;2023-12-07T03:52:58;1.20;96.40
83500;DHT22;73433;50.908;13.746;2023-12-07T03:55:25;1.20;96.00
83500;DHT22;73433;50.908;13.746;2023-12-07T03:57:52;1.20;95.90
83500;DHT22;73433;50.908;13.746;2023-12-07T04:00:19;1.20;95.90
83500;DHT22;73433;50.908;13.746;2023-12-07T04:02:46;1.20;95.90
83500;DHT22;73433;50.908;13.746;2023-12-07T04:05:13;1.20;95.80
83500;DHT22;73433;50.908;13.746;2023-12-07T04:07:41;1.20;95.70
83500;DHT22;73433;50.908;13.746;2023-12-07T04:10:09;1.20;95.60
83500;DHT22;73433;50.908;13.746;2023-12-07T04:12:36;1.20;95.60
83500;DHT22;73433;50.908;13.746;2023-12-07T04:15:04;1.20;95.50
83500;DHT22;73433;50.908;13.746;2023-12-07T04:17:31;1.30;95.50
83500;DHT22;73433;50.908;13.746;2023-12-07T04:19:58;1.20;95.30
83500;DHT22;73433;50.908;13.746;2023-12-07T04:22:25;1.20;95.30
83500;DHT22;73433;50.908;13.746;2023-12-07T04:24:53;1.20;95.30
83500;DHT22;73433;50.908;13.746;2023-12-07T04:27:20;1.30;95.30
83500;DHT22;73433;50.908;13.746;2023-12-07T04:29:47;1.20;95.30
83500;DHT22;73433;50.908;13.746;2023-12-07T04:32:15;1.20;95.20
83500;DHT22;73433;50.908;13.746;2023-12-07T04:34:42;1.20;95.10
83500;DHT22;73433;50.908;13.746;2023-12-07T04:37:09;1.20;95.20
83500;DHT22;73433;50.908;13.746;2023-12-07T04:39:36;1.20;95.20
83500;DHT22;73433;50.908;13.746;2023-12-07T04:42:04;1.20;95.10
83500;DHT22;73433;50.908;13.746;2023-12-07T04:44:31;1.20;95.10
83500;DHT22;73433;50.908;13.746;2023-12-07T04:46:58;1.20;95.10
83500;DHT22;73433;50.908;13.746;2023-12-07T04:49:26;1.20;95.10
83500;DHT22;73433;50.908;13.746;2023-12-07T04:51:53;1.20;95.10
83500;DHT22;73433;50.908;13.746;2023-12-07T04:54:20;1.20;95.10
83500;DHT22;73433;50.908;13.746;2023-12-07T04:56:48;1.20;95.10
83500;DHT22;73433;50.908;13.746;2023-12-07T04:59:16;1.30;95.20
83500;DHT22;73433;50.908;13.746;2023-12-07T05:01:43;1.20;95.10
83500;DHT22;73433;50.908;13.746;2023-12-07T05:04:10;1.30;95.10
83500;DHT22;73433;50.908;13.746;2023-12-07T05:06:38;1.20;95.00
83500;DHT22;73433;50.908;13.746;2023-12-07T05:09:05;1.20;95.00
83500;DHT22;73433;50.908;13.746;2023-12-07T05:11:36;1.30;95.10
83500;DHT22;73433;50.908;13.746;2023-12-07T05:14:04;1.30;95.00
83500;DHT22;73433;50.908;13.746;2023-12-07T05:16:32;1.30;95.10
83500;DHT22;73433;50.908;13.746;2023-12-07T05:18:59;1.30;95.00
83500;DHT22;73433;50.908;13.746;2023-12-07T05:21:27;1.30;95.00
83500;DHT22;73433;50.908;13.746;2023-12-07T05:23:54;1.30;95.00
83500;DHT22;73433;50.908;13.746;2023-12-07T05:26:21;1.30;94.80
83500;DHT22;73433;50.908;13.746;2023-12-07T05:28:48;1.30;94.80
83500;DHT22;73433;50.908;13.746;2023-12-07T05:31:19;1.30;94.80
83500;DHT22;73433;50.908;13.746;2023-12-07T05:33:46;1.30;94.80
83500;DHT22;73433;50.908;13.746;2023-12-07T05:36:14;1.40;94.70
83500;DHT22;73433;50.908;13.746;2023-12-07T05:38:41;1.40;94.60
83500;DHT22;73433;50.908;13.746;2023-12-07T05:41:09;1.40;95.30
83500;DHT22;73433;50.908;13.746;2023-12-07T05:43:36;1.40;94.50
83500;DHT22;73433;50.908;13.746;2023-12-07T05:46:03;1.40;94.40
83500;DHT22;73433;50.908;13.746;2023-12-07T05:48:30;1.40;94.40
83500;DHT22;73433;50.908;13.746;2023-12-07T05:50:58;1.30;94.40
83500;DHT22;73433;50.908;13.746;2023-12-07T05:53:25;1.30;94.60
83500;DHT22;73433;50.908;13.746;2023-12-07T05:55:54;1.30;94.50
83500;DHT22;73433;50.908;13.746;2023-12-07T05:58:21;1.30;94.60
83500;DHT22;73433;50.908;13.746;2023-12-07T06:00:48;1.30;94.60
83500;DHT22;73433;50.908;13.746;2023-12-07T06:03:16;1.30;94.60
83500;DHT22;73433;50.908;13.746;2023-12-07T06:05:44;1.30;94.60
83500;DHT22;73433;50.908;13.746;2023-12-07T06:08:13;1.30;94.60
83500;DHT22;73433;50.908;13.746;2023-12-07T06:10:41;1.40;94.80
83500;DHT22;73433;50.908;13.746;2023-12-07T06:13:08;1.30;94.70
83500;DHT22;73433;50.908;13.746;2023-12-07T06:15:35;1.30;94.70
83500;DHT22;73433;50.908;13.746;2023-12-07T06:18:03;1.30;94.80
83500;DHT22;73433;50.908;13.746;2023-12-07T06:20:30;1.30;94.90
83500;DHT22;73433;50.908;13.746;2023-12-07T06:22:58;1.30;94.90
83500;DHT22;73433;50.908;13.746;2023-12-07T06:25:25;1.30;94.80
83500;DHT22;73433;50.908;13.746;2023-12-07T06:27:52;1.30;94.80
83500;DHT22;73433;50.908;13.746;2023-12-07T06:30:20;1.30;94.70
83500;DHT22;73433;50.908;13.746;2023-12-07T06:32:47;1.40;94.60
83500;DHT22;73433;50.908;13.746;2023-12-07T06:35:16;1.40;94.50
83500;DHT22;73433;50.908;13.746;2023-12-07T06:37:43;1.40;94.50
83500;DHT22;73433;50.908;13.746;2023-12-07T06:40:11;1.40;94.40
83500;DHT22;73433;50.908;13.746;2023-12-07T06:42:38;1.40;94.30
83500;DHT22;73433;50.908;13.746;2023-12-07T06:45:07;1.40;94.20
83500;DHT22;73433;50.908;13.746;2023-12-07T06:47:41;1.40;94.20
83500;DHT22;73433;50.908;13.746;2023-12-07T06:50:11;1.40;94.20
83500;DHT22;73433;50.908;13.746;2023-12-07T06:52:39;1.40;94.10
83500;DHT22;73433;50.908;13.746;2023-12-07T06:55:07;1.40;94.10
83500;DHT22;73433;50.908;13.746;2023-12-07T06:57:38;1.40;94.20
83500;DHT22;73433;50.908;13.746;2023-12-07T07:00:06;1.40;94.10
83500;DHT22;73433;50.908;13.746;2023-12-07T07:02:40;1.40;94.90
83500;DHT22;73433;50.908;13.746;2023-12-07T07:05:07;1.40;94.00
83500;DHT22;73433;50.908;13.746;2023-12-07T07:07:36;1.40;93.90
83500;DHT22;73433;50.908;13.746;2023-12-07T07:10:03;1.40;94.00
83500;DHT22;73433;50.908;13.746;2023-12-07T07:12:31;1.40;93.90
83500;DHT22;73433;50.908;13.746;2023-12-07T07:14:58;1.40;94.00
83500;DHT22;73433;50.908;13.746;2023-12-07T07:17:26;1.40;94.00
83500;DHT22;73433;50.908;13.746;2023-12-07T07:19:53;1.30;94.10
83500;DHT22;73433;50.908;13.746;2023-12-07T07:22:22;1.40;94.10
83500;DHT22;73433;50.908;13.746;2023-12-07T07:24:49;1.40;94.10
83500;DHT22;73433;50.908;13.746;2023-12-07T07:27:16;1.40;94.10
83500;DHT22;73433;50.908;13.746;2023-12-07T07:29:43;1.40;94.10
83500;DHT22;73433;50.908;13.746;2023-12-07T07:32:11;1.40;94.20
83500;DHT22;73433;50.908;13.746;2023-12-07T07:34:38;1.40;94.00
83500;DHT22;73433;50.908;13.746;2023-12-07T07:37:06;1.40;93.90
83500;DHT22;73433;50.908;13.746;2023-12-07T07:39:36;1.50;94.00
83500;DHT22;73433;50.908;13.746;2023-12-07T07:42:03;1.50;94.00
83500;DHT22;73433;50.908;13.746;2023-12-07T07:44:31;1.50;93.90
83500;DHT22;73433;50.908;13.746;2023-12-07T07:46:58;1.50;93.80
83500;DHT22;73433;50.908;13.746;2023-12-07T07:49:26;1.50;93.70
83500;DHT22;73433;50.908;13.746;2023-12-07T07:51:53;1.50;93.70
83500;DHT22;73433;50.908;13.746;2023-12-07T07:54:20;1.60;93.60
83500;DHT22;73433;50.908;13.746;2023-12-07T07:56:48;1.60;93.50
83500;DHT22;73433;50.908;13.746;2023-12-07T07:59:15;1.60;93.40
83500;DHT22;73433;50.908;13.746;2023-12-07T08:01:42;1.60;93.20
83500;DHT22;73433;50.908;13.746;2023-12-07T08:04:10;1.60;93.20
83500;DHT22;73433;50.908;13.746;2023-12-07T08:06:39;1.60;93.20
83500;DHT22;73433;50.908;13.746;2023-12-07T08:09:07;1.60;93.10
83500;DHT22;73433;50.908;13.746;2023-12-07T08:11:36;1.60;93.20
83500;DHT22;73433;50.908;13.746;2023-12-07T08:14:03;1.70;93.30
83500;DHT22;73433;50.908;13.746;2023-12-07T08:16:30;1.60;93.10
83500;DHT22;73433;50.908;13.746;2023-12-07T08:18:57;1.70;93.20
83500;DHT22;73433;50.908;13.746;2023-12-07T08:21:25;1.70;93.10
83500;DHT22;73433;50.908;13.746;2023-12-07T08:23:57;1.70;92.90
83500;DHT22;73433;50.908;13.746;2023-12-07T08:26:24;1.70;92.80
83500;DHT22;73433;50.908;13.746;2023-12-07T08:28:51;1.70;92.90
83500;DHT22;73433;50.908;13.746;2023-12-07T08:31:21;1.70;92.70
83500;DHT22;73433;50.908;13.746;2023-12-07T08:33:51;1.70;92.60
83500;DHT22;73433;50.908;13.746;2023-12-07T08:36:19;1.80;92.50
83500;DHT22;73433;50.908;13.746;2023-12-07T08:38:46;1.80;92.50
83500;DHT22;73433;50.908;13.746;2023-12-07T08:41:13;1.80;92.50
83500;DHT22;73433;50.908;13.746;2023-12-07T08:43:41;1.90;92.50
83500;DHT22;73433;50.908;13.746;2023-12-07T08:46:09;1.90;92.30
83500;DHT22;73433;50.908;13.746;2023-12-07T08:48:36;1.90;92.20
83500;DHT22;73433;50.908;13.746;2023-12-07T08:51:09;1.90;92.20
83500;DHT22;73433;50.908;13.746;2023-12-07T08:53:36;1.90;92.10
83500;DHT22;73433;50.908;13.746;2023-12-07T08:56:04;1.90;92.00
83500;DHT22;73433;50.908;13.746;2023-12-07T08:58:31;2.00;92.00
83500;DHT22;73433;50.908;13.746;2023-12-07T09:00:59;2.00;91.80
83500;DHT22;73433;50.908;13.746;2023-12-07T09:03:26;2.00;91.70
83500;DHT22;73433;50.908;13.746;2023-12-07T09:06:00;2.00;91.60
83500;DHT22;73433;50.908;13.746;2023-12-07T09:08:27;2.00;91.60
83500;DHT22;73433;50.908;13.746;2023-12-07T09:10:54;2.00;91.50
83500;DHT22;73433;50.908;13.746;2023-12-07T09:13:22;2.00;91.50
83500;DHT22;73433;50.908;13.746;2023-12-07T09:15:49;2.00;91.50
83500;DHT22;73433;50.908;13.746;2023-12-07T09:18:17;2.00;91.50
83500;DHT22;73433;50.908;13.746;2023-12-07T09:20:44;2.00;91.40
83500;DHT22;73433;50.908;13.746;2023-12-07T09:23:14;2.00;91.40
83500;DHT22;73433;50.908;13.746;2023-12-07T09:25:43;2.00;91.40
83500;DHT22;73433;50.908;13.746;2023-12-07T09:28:11;2.10;91.30
83500;DHT22;73433;50.908;13.746;2023-12-07T09:30:38;2.00;91.10
83500;DHT22;73433;50.908;13.746;2023-12-07T09:33:06;2.00;91.00
83500;DHT22;73433;50.908;13.746;2023-12-07T09:35:33;2.00;91.10
83500;DHT22;73433;50.908;13.746;2023-12-07T09:38:02;2.00;91.10
83500;DHT22;73433;50.908;13.746;2023-12-07T09:40:30;2.00;91.20
83500;DHT22;73433;50.908;13.746;2023-12-07T09:42:57;2.00;91.40
83500;DHT22;73433;50.908;13.746;2023-12-07T09:45:25;2.00;91.60
83500;DHT22;73433;50.908;13.746;2023-12-07T09:47:55;2.00;91.80
83500;DHT22;73433;50.908;13.746;2023-12-07T09:50:26;2.00;91.80
83500;DHT22;73433;50.908;13.746;2023-12-07T09:52:56;2.00;91.90
83500;DHT22;73433;50.908;13.746;2023-12-07T09:55:47;2.00;91.90
83500;DHT22;73433;50.908;13.746;2023-12-07T09:58:14;2.00;91.70
83500;DHT22;73433;50.908;13.746;2023-12-07T10:00:48;2.00;91.70
83500;DHT22;73433;50.908;13.746;2023-12-07T10:03:22;2.10;91.80
83500;DHT22;73433;50.908;13.746;2023-12-07T10:05:57;2.00;91.60
83500;DHT22;73433;50.908;13.746;2023-12-07T10:08:33;2.10;91.70
83500;DHT22;73433;50.908;13.746;2023-12-07T10:11:05;2.10;91.60
83500;DHT22;73433;50.908;13.746;2023-12-07T10:13:36;2.10;91.60
83500;DHT22;73433;50.908;13.746;2023-12-07T10:16:14;2.10;91.60
83500;DHT22;73433;50.908;13.746;2023-12-07T10:18:42;2.20;91.50
83500;DHT22;73433;50.908;13.746;2023-12-07T10:21:12;2.20;91.40
83500;DHT22;73433;50.908;13.746;2023-12-07T10:23:41;2.10;91.30
83500;DHT22;73433;50.908;13.746;2023-12-07T10:26:11;2.20;91.20
83500;DHT22;73433;50.908;13.746;2023-12-07T10:28:39;2.20;91.20
83500;DHT22;73433;50.908;13.746;2023-12-07T10:31:09;2.20;91.20
83500;DHT22;73433;50.908;13.746;2023-12-07T10:33:37;2.20;91.10
83500;DHT22;73433;50.908;13.746;2023-12-07T10:36:05;2.10;91.00
83500;DHT22;73433;50.908;13.746;2023-12-07T10:38:33;2.10;91.10
83500;DHT22;73433;50.908;13.746;2023-12-07T10:41:05;2.10;91.00
83500;DHT22;73433;50.908;13.746;2023-12-07T10:43:37;2.20;91.10
83500;DHT22;73433;50.908;13.746;2023-12-07T10:46:05;2.20;90.90
83500;DHT22;73433;50.908;13.746;2023-12-07T10:48:34;2.20;90.90
83500;DHT22;73433;50.908;13.746;2023-12-07T10:51:06;2.20;90.90
83500;DHT22;73433;50.908;13.746;2023-12-07T10:53:43;2.20;90.90
83500;DHT22;73433;50.908;13.746;2023-12-07T10:56:15;2.20;90.80
83500;DHT22;73433;50.908;13.746;2023-12-07T10:58:43;2.20;90.70
83500;DHT22;73433;50.908;13.746;2023-12-07T11:01:13;2.20;90.90
83500;DHT22;73433;50.908;13.746;2023-12-07T11:03:43;2.20;90.70
83500;DHT22;73433;50.908;13.746;2023-12-07T11:06:11;2.20;90.60
83500;DHT22;73433;50.908;13.746;2023-12-07T11:08:43;2.20;90.60
83500;DHT22;73433;50.908;13.746;2023-12-07T11:11:21;2.20;90.60
83500;DHT22;73433;50.908;13.746;2023-12-07T11:14:17;2.20;90.60
83500;DHT22;73433;50.908;13.746;2023-12-07T11:16:46;2.20;90.70
83500;DHT22;73433;50.908;13.746;2023-12-07T11:19:43;2.20;90.90
83500;DHT22;73433;50.908;13.746;2023-12-07T11:22:12;2.20;90.80
83500;DHT22;73433;50.908;13.746;2023-12-07T11:24:56;2.10;91.00
83500;DHT22;73433;50.908;13.746;2023-12-07T11:27:32;2.10;91.30
83500;DHT22;73433;50.908;13.746;2023-12-07T11:30:00;2.10;91.30
83500;DHT22;73433;50.908;13.746;2023-12-07T11:32:28;2.10;91.50
83500;DHT22;73433;50.908;13.746;2023-12-07T11:35:02;2.10;91.50
83500;DHT22;73433;50.908;13.746;2023-12-07T11:38:06;2.10;91.60
83500;DHT22;73433;50.908;13.746;2023-12-07T11:40:36;2.10;91.80
83500;DHT22;73433;50.908;13.746;2023-12-07T11:43:03;2.10;91.90
83500;DHT22;73433;50.908;13.746;2023-12-07T11:45:46;2.10;91.90
83500;DHT22;73433;50.908;13.746;2023-12-07T11:48:16;2.10;92.00
83500;DHT22;73433;50.908;13.746;2023-12-07T11:51:06;2.00;92.00
83500;DHT22;73433;50.908;13.746;2023-12-07T11:53:38;2.00;92.20
83500;DHT22;73433;50.908;13.746;2023-12-07T11:56:09;2.00;92.30
83500;DHT22;73433;50.908;13.746;2023-12-07T11:58:38;2.00;92.40
83500;DHT22;73433;50.908;13.746;2023-12-07T12:01:07;2.00;92.50
83500;DHT22;73433;50.908;13.746;2023-12-07T12:03:36;2.00;92.60
83500;DHT22;73433;50.908;13.746;2023-12-07T12:06:05;2.00;92.80
83500;DHT22;73433;50.908;13.746;2023-12-07T12:08:33;1.90;92.80
83500;DHT22;73433;50.908;13.746;2023-12-07T12:11:01;1.90;92.90
83500;DHT22;73433;50.908;13.746;2023-12-07T12:13:35;1.90;93.10
83500;DHT22;73433;50.908;13.746;2023-12-07T12:16:04;1.90;93.20
83500;DHT22;73433;50.908;13.746;2023-12-07T12:18:34;1.90;93.40
83500;DHT22;73433;50.908;13.746;2023-12-07T12:21:02;1.90;93.40
83500;DHT22;73433;50.908;13.746;2023-12-07T12:23:30;1.90;93.50
83500;DHT22;73433;50.908;13.746;2023-12-07T12:25:57;1.90;93.50
83500;DHT22;73433;50.908;13.746;2023-12-07T12:28:25;1.90;93.50
83500;DHT22;73433;50.908;13.746;2023-12-07T12:30:55;1.90;93.50
83500;DHT22;73433;50.908;13.746;2023-12-07T12:33:22;1.90;93.70
83500;DHT22;73433;50.908;13.746;2023-12-07T12:36:06;1.90;93.60
83500;DHT22;73433;50.908;13.746;2023-12-07T12:38:34;1.90;93.60
83500;DHT22;73433;50.908;13.746;2023-12-07T12:41:10;1.90;93.60
83500;DHT22;73433;50.908;13.746;2023-12-07T12:43:38;1.90;93.50
83500;DHT22;73433;50.908;13.746;2023-12-07T12:46:05;1.90;93.70
83500;DHT22;73433;50.908;13.746;2023-12-07T12:48:33;1.90;93.60
83500;DHT22;73433;50.908;13.746;2023-12-07T12:51:08;1.90;93.60
83500;DHT22;73433;50.908;13.746;2023-12-07T12:53:35;1.90;93.50
83500;DHT22;73433;50.908;13.746;2023-12-07T12:56:08;1.90;93.50
83500;DHT22;73433;50.908;13.746;2023-12-07T12:58:35;1.90;93.40
83500;DHT22;73433;50.908;13.746;2023-12-07T13:01:03;1.90;93.40
83500;DHT22;73433;50.908;13.746;2023-12-07T13:03:30;1.90;93.30
83500;DHT22;73433;50.908;13.746;2023-12-07T13:05:59;1.90;93.40
83500;DHT22;73433;50.908;13.746;2023-12-07T13:08:29;1.90;93.30
83500;DHT22;73433;50.908;13.746;2023-12-07T13:11:00;1.90;93.30
83500;DHT22;73433;50.908;13.746;2023-12-07T13:13:27;1.90;94.00
83500;DHT22;73433;50.908;13.746;2023-12-07T13:15:55;1.90;93.30
83500;DHT22;73433;50.908;13.746;2023-12-07T13:18:22;1.90;94.00
83500;DHT22;73433;50.908;13.746;2023-12-07T13:20:49;1.90;93.20
83500;DHT22;73433;50.908;13.746;2023-12-07T13:23:22;1.90;93.10
83500;DHT22;73433;50.908;13.746;2023-12-07T13:25:50;1.90;93.20
83500;DHT22;73433;50.908;13.746;2023-12-07T13:28:17;1.90;93.20
83500;DHT22;73433;50.908;13.746;2023-12-07T13:30:44;1.90;93.50
83500;DHT22;73433;50.908;13.746;2023-12-07T13:33:11;1.90;93.20
83500;DHT22;73433;50.908;13.746;2023-12-07T13:35:53;1.90;93.20
83500;DHT22;73433;50.908;13.746;2023-12-07T13:38:22;1.90;93.10
83500;DHT22;73433;50.908;13.746;2023-12-07T13:40:50;2.00;93.00
83500;DHT22;73433;50.908;13.746;2023-12-07T13:43:17;1.90;93.00
83500;DHT22;73433;50.908;13.746;2023-12-07T13:45:45;2.00;92.80
83500;DHT22;73433;50.908;13.746;2023-12-07T13:48:13;1.90;92.80
83500;DHT22;73433;50.908;13.746;2023-12-07T13:50:42;1.90;92.60
83500;DHT22;73433;50.908;13.746;2023-12-07T13:53:10;1.90;92.60
83500;DHT22;73433;50.908;13.746;2023-12-07T13:55:39;1.90;92.60
83500;DHT22;73433;50.908;13.746;2023-12-07T13:58:06;1.90;92.50
83500;DHT22;73433;50.908;13.746;2023-12-07T14:00:34;1.90;92.50
83500;DHT22;73433;50.908;13.746;2023-12-07T14:03:02;1.90;92.50
83500;DHT22;73433;50.908;13.746;2023-12-07T14:05:30;1.90;92.50
83500;DHT22;73433;50.908;13.746;2023-12-07T14:07:58;1.80;92.50
83500;DHT22;73433;50.908;13.746;2023-12-07T14:10:25;1.80;92.50
83500;DHT22;73433;50.908;13.746;2023-12-07T14:12:54;1.80;92.50
83500;DHT22;73433;50.908;13.746;2023-12-07T14:15:21;1.80;92.50
83500;DHT22;73433;50.908;13.746;2023-12-07T14:18:05;1.80;92.60
83500;DHT22;73433;50.908;13.746;2023-12-07T14:20:32;1.80;92.60
83500;DHT22;73433;50.908;13.746;2023-12-07T14:23:19;1.80;92.70
83500;DHT22;73433;50.908;13.746;2023-12-07T14:25:47;1.80;92.80
83500;DHT22;73433;50.908;13.746;2023-12-07T14:28:15;1.80;92.80
83500;DHT22;73433;50.908;13.746;2023-12-07T14:30:43;1.80;92.80
83500;DHT22;73433;50.908;13.746;2023-12-07T14:33:11;1.80;92.80
83500;DHT22;73433;50.908;13.746;2023-12-07T14:35:38;1.80;92.70
83500;DHT22;73433;50.908;13.746;2023-12-07T14:38:05;1.70;92.80
83500;DHT22;73433;50.908;13.746;2023-12-07T14:40:32;1.70;92.80
83500;DHT22;73433;50.908;13.746;2023-12-07T14:43:01;1.70;92.90
83500;DHT22;73433;50.908;13.746;2023-12-07T14:45:29;1.70;92.90
83500;DHT22;73433;50.908;13.746;2023-12-07T14:47:56;1.60;92.90
83500;DHT22;73433;50.908;13.746;2023-12-07T14:50:25;1.60;93.10
83500;DHT22;73433;50.908;13.746;2023-12-07T14:52:52;1.60;93.10
83500;DHT22;73433;50.908;13.746;2023-12-07T14:55:20;1.60;93.40
83500;DHT22;73433;50.908;13.746;2023-12-07T14:57:47;1.50;93.50
83500;DHT22;73433;50.908;13.746;2023-12-07T15:00:16;1.50;93.70
83500;DHT22;73433;50.908;13.746;2023-12-07T15:02:43;1.50;94.60
83500;DHT22;73433;50.908;13.746;2023-12-07T15:05:10;1.50;94.00
83500;DHT22;73433;50.908;13.746;2023-12-07T15:07:38;1.50;94.10
83500;DHT22;73433;50.908;13.746;2023-12-07T15:10:06;1.50;94.20
83500;DHT22;73433;50.908;13.746;2023-12-07T15:12:34;1.40;94.20
83500;DHT22;73433;50.908;13.746;2023-12-07T15:15:02;1.40;94.30
83500;DHT22;73433;50.908;13.746;2023-12-07T15:17:33;1.40;94.40
83500;DHT22;73433;50.908;13.746;2023-12-07T15:20:01;1.40;94.50
83500;DHT22;73433;50.908;13.746;2023-12-07T15:22:29;1.40;94.60
83500;DHT22;73433;50.908;13.746;2023-12-07T15:24:56;1.30;94.80
83500;DHT22;73433;50.908;13.746;2023-12-07T15:27:24;1.30;94.90
83500;DHT22;73433;50.908;13.746;2023-12-07T15:29:51;1.30;95.00
83500;DHT22;73433;50.908;13.746;2023-12-07T15:32:19;1.30;95.00
83500;DHT22;73433;50.908;13.746;2023-12-07T15:34:46;1.30;95.10
83500;DHT22;73433;50.908;13.746;2023-12-07T15:37:15;1.30;95.30
83500;DHT22;73433;50.908;13.746;2023-12-07T15:39:44;1.30;95.30
83500;DHT22;73433;50.908;13.746;2023-12-07T15:42:12;1.30;95.40
83500;DHT22;73433;50.908;13.746;2023-12-07T15:44:39;1.30;95.50